Time;durP1;ratioP1;P1;durP2;ratioP2;P2;SDS_P1;SDS_P2;PMS_P1;PMS_P2;Temp;Humidity;BMP_temperature;BMP_pressure;BME280_temperature;BME280_humidity;BME280_pressure;Samples;Min_cycle;Max_cycle;Signal;HPM_P1;HPM_P2
2022/10/04 00:05:42;;;;;;;16.60;14.83;;;;;10.60;99669.00;;;;16565322;28;20220;-48
2022/10/04 00:13:49;;;;;;;13.50;12.10;;;;;10.80;99659.00;;;;16577451;28;20224;-49
2022/10/04 00:22:16;;;;;;;14.50;12.97;;;;;10.20;99674.00;;;;16575377;28;20591;-48
2022/10/04 00:30:23;;;;;;;19.47;14.40;;;;;10.70;99663.00;;;;16572040;28;20700;-49
2022/10/04 00:38:28;;;;;;;16.93;15.13;;;;;10.40;99658.00;;;;16559084;28;20223;-49
2022/10/04 00:46:32;;;;;;;16.63;12.93;;;;;10.40;99651.00;;;;16576430;28;20263;-49
2022/10/04 00:54:40;;;;;;;18.87;14.87;;;;;10.90;99647.00;;;;16584844;28;20268;-48
2022/10/04 01:02:50;;;;;;;16.20;12.40;;;;;10.50;99639.00;;;;16575562;28;20221;-48
2022/10/04 01:10:58;;;;;;;20.83;13.87;;;;;10.10;99645.00;;;;16572230;28;20223;-49
2022/10/04 01:19:30;;;;;;;15.70;13.63;;;;;10.10;99632.00;;;;16583217;28;20229;-49
2022/10/04 01:27:36;;;;;;;14.23;12.90;;;;;9.40;99642.00;;;;16578044;28;20223;-48
2022/10/04 01:35:38;;;;;;;13.10;11.80;;;;;9.50;99639.00;;;;16571854;28;20606;-48
2022/10/04 01:43:45;;;;;;;16.83;12.37;;;;;9.80;99630.00;;;;16570803;28;20895;-48
2022/10/04 01:51:55;;;;;;;13.13;11.83;;;;;10.40;99602.00;;;;16576383;28;20690;-48
2022/10/04 02:00:04;;;;;;;13.53;10.93;;;;;10.50;99586.00;;;;16576573;28;20223;-48
2022/10/04 02:08:09;;;;;;;13.30;11.27;;;;;10.70;99587.00;;;;16569162;28;20234;-49
2022/10/04 02:16:13;;;;;;;13.50;10.47;;;;;9.80;99587.00;;;;16567076;28;20239;-48
2022/10/04 02:24:16;;;;;;;13.67;12.27;;;;;10.20;99587.00;;;;16577693;28;20231;-48
2022/10/04 02:40:49;;;;;;;13.17;11.77;;;;;9.80;99582.00;;;;16555985;28;20270;-49
2022/10/04 02:48:55;;;;;;;11.57;10.47;;;;;10.20;99570.00;;;;16575104;28;20833;-49
2022/10/04 02:56:58;;;;;;;13.63;11.03;;;;;10.30;99578.00;;;;16578872;28;20298;-49
2022/10/04 03:05:06;;;;;;;14.67;11.93;;;;;10.50;99563.00;;;;16567156;28;20238;-49
2022/10/04 03:13:08;;;;;;;11.67;10.27;;;;;10.20;99556.00;;;;16569977;28;20261;-49
2022/10/04 03:21:14;;;;;;;18.47;10.70;;;;;10.00;99569.00;;;;16578509;28;20215;-48
2022/10/04 03:29:19;;;;;;;11.53;9.37;;;;;10.00;99543.00;;;;16578399;28;20234;-48
2022/10/04 03:37:22;;;;;;;12.70;9.90;;;;;10.00;99544.00;;;;16569328;28;20219;-49
2022/10/04 03:45:27;;;;;;;11.97;10.47;;;;;10.40;99541.00;;;;16575161;28;20734;-49
2022/10/04 03:53:36;;;;;;;11.80;9.57;;;;;10.10;99546.00;;;;16572739;28;20233;-49
2022/10/04 04:01:40;;;;;;;10.20;9.10;;;;;10.10;99543.00;;;;16579379;28;20259;-48
2022/10/04 04:09:45;;;;;;;10.17;8.87;;;;;10.10;99546.00;;;;16567742;28;20235;-48
2022/10/04 04:17:50;;;;;;;10.00;9.00;;;;;9.90;99547.00;;;;16574367;28;20219;-48
2022/10/04 04:25:56;;;;;;;9.10;8.30;;;;;9.90;99543.00;;;;16580244;28;20368;-49
2022/10/04 04:34:00;;;;;;;10.30;9.40;;;;;9.80;99541.00;;;;16585467;28;20714;-49
2022/10/04 04:42:06;;;;;;;9.33;8.43;;;;;9.80;99542.00;;;;16571326;28;20221;-48
2022/10/04 04:50:14;;;;;;;9.63;8.83;;;;;9.80;99532.00;;;;16576732;28;20705;-49
2022/10/04 04:58:20;;;;;;;10.70;9.80;;;;;9.60;99554.00;;;;16580316;28;20246;-48
2022/10/04 05:06:26;;;;;;;9.60;8.70;;;;;9.60;99569.00;;;;16574541;28;20335;-49
2022/10/04 05:14:30;;;;;;;9.70;8.80;;;;;9.70;99569.00;;;;16578737;28;20639;-48
2022/10/04 05:22:33;;;;;;;10.80;9.63;;;;;9.60;99569.00;;;;16568117;28;20317;-48
2022/10/04 05:30:47;;;;;;;13.03;11.00;;;;;9.50;99588.00;;;;16582277;28;20247;-49
2022/10/04 05:38:53;;;;;;;21.00;15.83;;;;;9.40;99586.00;;;;16565876;28;20316;-49
2022/10/04 05:46:59;;;;;;;10.80;8.30;;;;;14.80;99547.00;;;;16550231;28;20238;-50
2022/10/04 05:55:27;;;;;;;10.10;9.10;;;;;15.50;99521.00;;;;16542386;28;20227;-49
2022/10/04 06:03:40;;;;;;;10.10;9.20;;;;;10.90;99542.00;;;;16548716;28;20227;-49
2022/10/04 06:11:49;;;;;;;9.63;8.63;;;;;10.20;99560.00;;;;16543700;28;20270;-49
2022/10/04 06:20:13;;;;;;;10.60;9.70;;;;;10.90;99554.00;;;;16550759;28;20227;-49
2022/10/04 06:28:21;;;;;;;14.30;12.80;;;;;10.70;99556.00;;;;16547294;28;20248;-48
2022/10/04 06:36:38;;;;;;;10.33;9.43;;;;;10.40;99567.00;;;;16544376;28;20439;-49
2022/10/04 06:45:04;;;;;;;13.73;10.90;;;;;10.20;99575.00;;;;16561944;28;20364;-49
2022/10/04 06:53:19;;;;;;;9.70;8.70;;;;;10.30;99571.00;;;;16555657;28;20582;-49
2022/10/04 07:01:28;;;;;;;10.73;9.63;;;;;10.60;99562.00;;;;16547542;28;20300;-48
2022/10/04 07:09:34;;;;;;;10.10;9.00;;;;;10.60;99574.00;;;;16546856;28;20234;-48
2022/10/04 07:17:39;;;;;;;8.53;7.73;;;;;10.90;99561.00;;;;16541309;28;20760;-49
2022/10/04 07:25:46;;;;;;;9.77;7.67;;;;;10.80;99573.00;;;;16572106;28;20602;-49
2022/10/04 07:33:51;;;;;;;9.47;8.60;;;;;10.70;99578.00;;;;16542554;28;20360;-49
2022/10/04 07:41:58;;;;;;;8.70;7.90;;;;;11.10;99592.00;;;;16526842;28;20211;-49
2022/10/04 07:50:01;;;;;;;8.53;7.73;;;;;11.80;99607.00;;;;16543992;28;20297;-48
2022/10/04 07:58:15;;;;;;;8.43;7.37;;;;;11.70;99609.00;;;;16573183;28;20229;-48
2022/10/04 08:06:20;;;;;;;9.30;6.90;;;;;12.00;99604.00;;;;16581589;28;20597;-49
2022/10/04 08:14:34;;;;;;;8.50;7.73;;;;;12.30;99590.00;;;;16556735;28;20215;-49
2022/10/04 08:23:00;;;;;;;7.47;6.57;;;;;12.90;99583.00;;;;16583464;28;20226;-48
2022/10/04 08:31:11;;;;;;;6.50;6.00;;;;;12.50;99548.00;;;;16585444;28;20216;-49
2022/10/04 08:39:28;;;;;;;6.50;5.90;;;;;12.90;99550.00;;;;16572467;28;20223;-48
2022/10/04 08:48:05;;;;;;;6.80;6.20;;;;;12.80;99557.00;;;;16566519;28;20232;-49
2022/10/04 08:56:17;;;;;;;8.77;7.73;;;;;13.10;99565.00;;;;16574565;28;20231;-48
2022/10/04 09:05:01;;;;;;;7.73;6.90;;;;;13.70;99579.00;;;;16578868;28;20229;-49
2022/10/04 09:13:38;;;;;;;7.70;7.00;;;;;14.40;99569.00;;;;16576895;28;20235;-48
2022/10/04 09:22:09;;;;;;;10.37;5.50;;;;;15.10;99568.00;;;;16550771;28;20413;-49
2022/10/04 09:30:17;;;;;;;6.60;5.97;;;;;16.70;99532.00;;;;16574641;28;20235;-49
2022/10/04 09:38:41;;;;;;;6.97;6.37;;;;;16.90;99519.00;;;;16560268;28;20362;-49
2022/10/04 09:47:14;;;;;;;6.90;6.30;;;;;18.00;99512.00;;;;16544895;28;20215;-48
2022/10/04 09:55:45;;;;;;;8.90;5.90;;;;;18.10;99495.00;;;;16567990;28;20221;-49
2022/10/04 10:04:23;;;;;;;8.30;5.40;;;;;18.00;99499.00;;;;16575812;28;20226;-48
2022/10/04 10:21:31;;;;;;;5.67;4.77;;;;;19.00;99496.00;;;;16459059;28;20619;-49
2022/10/04 10:30:06;;;;;;;5.67;5.07;;;;;19.20;99496.00;;;;16548293;28;20227;-49
2022/10/04 10:38:39;;;;;;;10.43;5.37;;;;;18.90;99496.00;;;;16578298;28;20381;-49
2022/10/04 10:46:57;;;;;;;6.37;5.43;;;;;19.90;99481.00;;;;16536858;28;20239;-49
2022/10/04 10:55:42;;;;;;;6.13;3.93;;;;;21.40;99472.00;;;;16568214;28;20326;-50
2022/10/04 11:04:18;;;;;;;7.20;5.50;;;;;21.40;99477.00;;;;16560109;28;20618;-49
2022/10/04 11:12:43;;;;;;;8.23;5.07;;;;;21.70;99461.00;;;;16559925;28;20200;-50
2022/10/04 11:21:24;;;;;;;4.87;4.30;;;;;22.50;99464.00;;;;16558572;28;20225;-50
2022/10/04 11:29:40;;;;;;;12.10;5.33;;;;;23.40;99447.00;;;;16551664;28;20224;-49
2022/10/04 11:37:53;;;;;;;6.63;4.17;;;;;23.80;99432.00;;;;16561885;28;20226;-50
2022/10/04 11:46:17;;;;;;;5.00;3.93;;;;;22.90;99429.00;;;;16551337;28;20265;-50
2022/10/04 11:55:07;;;;;;;4.77;3.63;;;;;23.20;99424.00;;;;16548879;28;20229;-49
2022/10/04 12:03:43;;;;;;;6.80;3.83;;;;;23.60;99408.00;;;;16551989;28;20230;-50
2022/10/04 12:20:56;;;;;;;5.83;3.77;;;;;24.40;99391.00;;;;16568325;28;20220;-50
2022/10/04 12:29:16;;;;;;;4.63;3.97;;;;;25.00;99390.00;;;;16568824;28;20234;-50
2022/10/04 12:37:25;;;;;;;8.37;4.47;;;;;25.50;99385.00;;;;16565721;28;20215;-50
2022/10/04 12:45:51;;;;;;;6.80;4.83;;;;;24.30;99375.00;;;;16568957;28;20219;-50
2022/10/04 12:54:00;;;;;;;6.10;4.10;;;;;24.90;99376.00;;;;16546229;28;20215;-51
2022/10/04 13:02:14;;;;;;;5.57;3.80;;;;;25.60;99374.00;;;;16557261;28;20198;-49
2022/10/04 13:10:30;;;;;;;5.43;3.33;;;;;25.50;99363.00;;;;16571561;28;20222;-50
2022/10/04 13:18:40;;;;;;;5.43;3.40;;;;;25.80;99361.00;;;;16558764;28;20227;-50
2022/10/04 13:26:45;;;;;;;3.07;2.77;;;;;25.90;99362.00;;;;16559272;28;20285;-50
2022/10/04 13:34:54;;;;;;;4.80;3.90;;;;;27.20;99373.00;;;;16578961;28;20215;-50
2022/10/04 13:43:18;;;;;;;6.03;3.53;;;;;26.40;99374.00;;;;16572918;28;20215;-49
2022/10/04 13:56:35;;;;;;;6.27;3.27;;;;;25.70;99360.00;;;;16564526;28;20551;-50
2022/10/04 14:00:13;;;;;;;3.17;2.80;;;;;26.10;99370.00;;;;16565459;28;20230;-48
2022/10/04 14:08:37;;;;;;;7.43;2.80;;;;;25.10;99371.00;;;;16558460;28;20227;-47
2022/10/04 14:17:32;;;;;;;5.30;2.70;;;;;24.20;99366.00;;;;16562785;28;20217;-47
2022/10/04 14:26:06;;;;;;;3.40;2.93;;;;;24.00;99352.00;;;;16527253;28;20240;-47
2022/10/04 14:34:39;;;;;;;3.97;2.50;;;;;25.00;99345.00;;;;16559488;28;20207;-50
2022/10/04 14:42:59;;;;;;;6.07;2.70;;;;;25.20;99339.00;;;;16542313;28;20231;-50
2022/10/04 14:51:24;;;;;;;3.13;2.37;;;;;25.30;99341.00;;;;16558103;28;20204;-48
2022/10/04 15:00:02;;;;;;;6.67;2.37;;;;;25.80;99335.00;;;;16536588;28;20219;-48
2022/10/04 15:08:39;;;;;;;3.83;2.50;;;;;25.80;99338.00;;;;16533506;28;20277;-48
2022/10/04 15:16:46;;;;;;;4.03;2.47;;;;;26.40;99334.00;;;;16525707;28;20223;-48
2022/10/04 15:24:50;;;;;;;6.63;2.77;;;;;26.50;99335.00;;;;16548444;28;20703;-48
2022/10/04 15:33:08;;;;;;;2.77;2.57;;;;;27.70;99320.00;;;;16560067;28;20203;-48
2022/10/04 15:41:18;;;;;;;2.90;2.27;;;;;28.80;99314.00;;;;16562669;28;20338;-50
2022/10/04 15:49:29;;;;;;;2.50;2.30;;;;;29.30;99315.00;;;;16544511;28;20228;-50
2022/10/04 15:57:42;;;;;;;7.90;4.93;;;;;29.20;99320.00;;;;16560836;28;20224;-50
2022/10/04 16:05:49;;;;;;;10.00;5.47;;;;;25.60;99323.00;;;;16551863;28;20223;-49
2022/10/04 16:14:22;;;;;;;5.17;4.37;;;;;22.90;99335.00;;;;16548840;28;20215;-49
2022/10/04 16:22:30;;;;;;;5.17;4.73;;;;;20.50;99340.00;;;;16566080;28;20308;-49
2022/10/04 16:30:39;;;;;;;8.07;6.57;;;;;19.90;99335.00;;;;16571266;28;20369;-49
2022/10/04 16:47:17;;;;;;;4.73;4.23;;;;;18.20;99356.00;;;;16577281;28;20235;-49
2022/10/04 16:55:43;;;;;;;9.20;4.97;;;;;17.60;99358.00;;;;16568709;28;20634;-48
2022/10/04 17:03:49;;;;;;;7.33;4.40;;;;;16.90;99370.00;;;;16557052;28;20756;-49
2022/10/04 17:12:07;;;;;;;6.53;4.63;;;;;16.80;99380.00;;;;16569985;28;20195;-48
2022/10/04 17:20:17;;;;;;;5.17;4.67;;;;;16.40;99391.00;;;;16562926;28;20266;-48
2022/10/04 17:28:29;;;;;;;5.70;4.97;;;;;16.40;99393.00;;;;16547823;28;20366;-48
2022/10/04 17:36:36;;;;;;;5.83;4.77;;;;;16.10;99384.00;;;;16541127;28;20877;-48
2022/10/04 17:44:54;;;;;;;5.87;4.57;;;;;15.90;99367.00;;;;16559159;28;20230;-48
2022/10/04 18:01:36;;;;;;;5.33;4.83;;;;;16.10;99333.00;;;;16525558;28;20265;-49
2022/10/04 18:09:43;;;;;;;8.67;7.77;;;;;15.50;99341.00;;;;16563856;28;20227;-48
2022/10/04 18:17:49;;;;;;;9.23;6.40;;;;;15.10;99355.00;;;;16569765;28;20230;-48
2022/10/04 18:25:52;;;;;;;19.63;17.83;;;;;16.00;99358.00;;;;16563988;28;20223;-48
2022/10/04 18:33:56;;;;;;;9.13;8.07;;;;;16.10;99357.00;;;;16548725;28;20298;-48
2022/10/04 18:42:08;;;;;;;11.10;7.33;;;;;15.80;99367.00;;;;16555447;28;20208;-49
2022/10/04 18:50:18;;;;;;;8.33;6.10;;;;;15.10;99373.00;;;;16561993;28;20243;-48
2022/10/04 19:06:55;;;;;;;8.13;7.27;;;;;14.50;99398.00;;;;16557050;28;20265;-48
2022/10/04 19:15:04;;;;;;;7.03;6.30;;;;;14.60;99415.00;;;;16556543;28;20232;-48
2022/10/04 19:23:19;;;;;;;9.23;7.37;;;;;14.50;99420.00;;;;16545273;28;20212;-48
2022/10/04 19:31:27;;;;;;;18.60;11.80;;;;;14.80;99422.00;;;;16537377;28;20736;-48
2022/10/04 19:39:46;;;;;;;8.17;7.37;;;;;14.50;99419.00;;;;16540759;28;20222;-48
2022/10/04 19:47:50;;;;;;;8.07;7.27;;;;;14.40;99427.00;;;;16534969;28;20233;-48
2022/10/04 19:55:56;;;;;;;10.30;7.20;;;;;14.90;99422.00;;;;16567655;28;20226;-48
2022/10/04 20:12:37;;;;;;;7.57;6.87;;;;;13.60;99449.00;;;;16580016;28;20213;-48
2022/10/04 20:21:08;;;;;;;9.30;7.33;;;;;13.40;99463.00;;;;16590810;28;20308;-48
2022/10/04 20:29:19;;;;;;;8.80;7.13;;;;;13.90;99475.00;;;;16587404;28;20241;-49
2022/10/04 20:37:21;;;;;;;31.63;20.77;;;;;14.00;99475.00;;;;16581772;28;20288;-48
2022/10/04 20:45:28;;;;;;;9.00;7.97;;;;;14.00;99478.00;;;;16586000;28;20242;-48
2022/10/04 20:53:33;;;;;;;8.33;7.10;;;;;13.30;99485.00;;;;16591559;28;20234;-48
2022/10/04 21:01:42;;;;;;;10.43;7.07;;;;;13.30;99501.00;;;;16589791;28;20198;-49
2022/10/04 21:09:45;;;;;;;8.83;7.00;;;;;13.50;99500.00;;;;16584292;28;20238;-48
2022/10/04 21:18:02;;;;;;;7.50;6.83;;;;;13.50;99515.00;;;;16575535;28;20229;-48
2022/10/04 21:26:21;;;;;;;7.87;6.90;;;;;13.20;99522.00;;;;16572605;28;20810;-48
2022/10/04 21:34:27;;;;;;;9.20;8.20;;;;;13.30;99521.00;;;;16571769;28;20223;-48
2022/10/04 21:42:30;;;;;;;9.67;8.40;;;;;13.40;99519.00;;;;16573337;28;20700;-49
2022/10/04 21:50:34;;;;;;;7.97;7.00;;;;;13.20;99513.00;;;;16547991;28;20247;-48
2022/10/04 21:58:36;;;;;;;10.83;8.00;;;;;12.80;99524.00;;;;16554333;28;20226;-48
2022/10/04 22:16:03;;;;;;;7.73;6.23;;;;;13.20;99525.00;;;;16566982;28;20249;-48
2022/10/04 22:24:20;;;;;;;7.93;6.57;;;;;12.70;99518.00;;;;16578981;28;20233;-48
2022/10/04 22:32:25;;;;;;;7.23;6.53;;;;;12.90;99513.00;;;;16579679;28;20200;-48
2022/10/04 22:50:36;;;;;;;7.17;6.47;;;;;12.80;99473.00;;;;16573152;28;20219;-48
2022/10/04 22:58:38;;;;;;;6.23;5.77;;;;;13.10;99466.00;;;;16571147;28;21352;-48
2022/10/04 23:06:42;;;;;;;11.23;8.13;;;;;13.10;99478.00;;;;16579915;28;20237;-48
2022/10/04 23:14:45;;;;;;;11.90;10.80;;;;;13.40;99455.00;;;;16576379;28;20271;-48
2022/10/04 23:22:51;;;;;;;14.83;12.57;;;;;13.50;99453.00;;;;16574174;28;20207;-48
2022/10/04 23:31:00;;;;;;;33.00;20.60;;;;;13.60;99455.00;;;;16565787;28;20232;-49
2022/10/04 23:39:06;;;;;;;17.63;11.17;;;;;13.30;99446.00;;;;16565384;28;20223;-48
2022/10/04 23:47:11;;;;;;;11.60;10.33;;;;;13.50;99437.00;;;;16575444;28;20708;-48
2022/10/04 23:55:18;;;;;;;10.67;9.57;;;;;13.30;99416.00;;;;16572201;28;20227;-48
